KLR weather

Kalmar Airport
Kalmar län, Sweden

Public forecast

Using degrees Celsius for public forecast. Weather courtesy of forecast.io.

METAR (pilot weather report)

Retrieved 2019/05/24 06:20 UTC (4 minutes ago):

ESMQ 240620Z 17008KT CAVOK 14/10 Q1011

TAF (pilot weather forecast)

Forecast is more than 12 hours old.

Retrieved 2016/04/23 12:33 UTC (3 years ago):

TAF ESMQ 231130Z 2312/2324 06007KT 9999 FEW010 SCT035 PROB40 2312/2315 SHRAGS BKN014 BKN030CB